sensor_id;sensor_type;location;lat;lon;timestamp;pressure;altitude;pressure_sealevel;temperature;humidity
65718;BME280;52445;52.466;-1.016;2023-11-19T00:00:12;99033.84;;;10.75;80.78
65718;BME280;52445;52.466;-1.016;2023-11-19T00:02:41;99045.91;;;10.76;80.48
65718;BME280;52445;52.466;-1.016;2023-11-19T00:05:09;99039.94;;;10.73;80.92
65718;BME280;52445;52.466;-1.016;2023-11-19T00:07:39;99030.44;;;10.73;80.01
65718;BME280;52445;52.466;-1.016;2023-11-19T00:10:11;99045.97;;;10.73;80.83
65718;BME280;52445;52.466;-1.016;2023-11-19T00:12:43;99032.19;;;10.71;79.63
65718;BME280;52445;52.466;-1.016;2023-11-19T00:15:11;99014.94;;;10.70;80.53
65718;BME280;52445;52.466;-1.016;2023-11-19T00:17:40;99007.22;;;10.69;80.07
65718;BME280;52445;52.466;-1.016;2023-11-19T00:20:12;99009.81;;;10.67;80.12
65718;BME280;52445;52.466;-1.016;2023-11-19T00:22:39;99011.59;;;10.65;80.26
65718;BME280;52445;52.466;-1.016;2023-11-19T00:25:15;99008.31;;;10.57;80.27
65718;BME280;52445;52.466;-1.016;2023-11-19T00:27:42;99012.56;;;10.61;80.40
65718;BME280;52445;52.466;-1.016;2023-11-19T00:30:12;99000.50;;;10.60;79.85
65718;BME280;52445;52.466;-1.016;2023-11-19T00:32:40;99016.06;;;10.58;79.93
65718;BME280;52445;52.466;-1.016;2023-11-19T00:35:08;98999.66;;;10.58;79.80
65718;BME280;52445;52.466;-1.016;2023-11-19T00:37:36;99012.59;;;10.58;80.83
65718;BME280;52445;52.466;-1.016;2023-11-19T00:40:03;99018.69;;;10.57;79.79
65718;BME280;52445;52.466;-1.016;2023-11-19T00:42:32;99009.16;;;10.57;79.60
65718;BME280;52445;52.466;-1.016;2023-11-19T00:44:58;99023.00;;;10.56;79.62
65718;BME280;52445;52.466;-1.016;2023-11-19T00:47:25;99022.22;;;10.52;79.70
65718;BME280;52445;52.466;-1.016;2023-11-19T00:49:52;99024.78;;;10.52;80.39
65718;BME280;52445;52.466;-1.016;2023-11-19T00:52:19;99011.81;;;10.54;79.53
65718;BME280;52445;52.466;-1.016;2023-11-19T00:54:45;99023.91;;;10.53;79.85
65718;BME280;52445;52.466;-1.016;2023-11-19T00:57:12;99016.19;;;10.50;80.73
65718;BME280;52445;52.466;-1.016;2023-11-19T00:59:42;99010.13;;;10.51;80.46
65718;BME280;52445;52.466;-1.016;2023-11-19T01:02:09;99001.56;;;10.49;80.61
65718;BME280;52445;52.466;-1.016;2023-11-19T01:04:36;99013.59;;;10.50;80.49
65718;BME280;52445;52.466;-1.016;2023-11-19T01:07:03;99009.31;;;10.49;79.46
65718;BME280;52445;52.466;-1.016;2023-11-19T01:09:32;99005.88;;;10.49;79.72
65718;BME280;52445;52.466;-1.016;2023-11-19T01:12:02;99008.47;;;10.47;79.91
65718;BME280;52445;52.466;-1.016;2023-11-19T01:14:29;99006.78;;;10.46;80.40
65718;BME280;52445;52.466;-1.016;2023-11-19T01:16:55;99000.78;;;10.43;80.52
65718;BME280;52445;52.466;-1.016;2023-11-19T01:19:22;99001.63;;;10.43;79.54
65718;BME280;52445;52.466;-1.016;2023-11-19T01:21:50;99005.97;;;10.43;79.99
65718;BME280;52445;52.466;-1.016;2023-11-19T01:24:17;98990.50;;;10.39;79.71
65718;BME280;52445;52.466;-1.016;2023-11-19T01:26:44;98989.59;;;10.40;79.61
65718;BME280;52445;52.466;-1.016;2023-11-19T01:29:13;98994.81;;;10.39;79.44
65718;BME280;52445;52.466;-1.016;2023-11-19T01:31:43;98995.72;;;10.36;79.58
65718;BME280;52445;52.466;-1.016;2023-11-19T01:34:10;98996.50;;;10.40;80.05
65718;BME280;52445;52.466;-1.016;2023-11-19T01:36:38;98997.38;;;10.39;79.91
65718;BME280;52445;52.466;-1.016;2023-11-19T01:39:06;98996.59;;;10.37;79.91
65718;BME280;52445;52.466;-1.016;2023-11-19T01:41:35;99006.94;;;10.37;80.25
65718;BME280;52445;52.466;-1.016;2023-11-19T01:44:03;99012.97;;;10.36;79.86
65718;BME280;52445;52.466;-1.016;2023-11-19T01:46:33;99006.94;;;10.37;79.51
65718;BME280;52445;52.466;-1.016;2023-11-19T01:49:02;99017.34;;;10.34;80.24
65718;BME280;52445;52.466;-1.016;2023-11-19T01:51:30;99014.72;;;10.35;80.38
65718;BME280;52445;52.466;-1.016;2023-11-19T01:53:58;99025.88;;;10.37;79.55
65718;BME280;52445;52.466;-1.016;2023-11-19T01:56:26;99018.97;;;10.38;80.30
65718;BME280;52445;52.466;-1.016;2023-11-19T01:58:55;99010.31;;;10.39;79.62
65718;BME280;52445;52.466;-1.016;2023-11-19T02:01:23;99009.53;;;10.35;79.96
65718;BME280;52445;52.466;-1.016;2023-11-19T02:03:51;99000.88;;;10.36;79.46
65718;BME280;52445;52.466;-1.016;2023-11-19T02:06:19;99005.22;;;10.34;80.01
65718;BME280;52445;52.466;-1.016;2023-11-19T02:08:46;99008.72;;;10.32;80.28
65718;BME280;52445;52.466;-1.016;2023-11-19T02:11:13;99006.94;;;10.37;79.72
65718;BME280;52445;52.466;-1.016;2023-11-19T02:13:40;98998.28;;;10.38;79.74
65718;BME280;52445;52.466;-1.016;2023-11-19T02:16:08;99008.59;;;10.41;80.14
65718;BME280;52445;52.466;-1.016;2023-11-19T02:18:37;99011.16;;;10.43;79.83
65718;BME280;52445;52.466;-1.016;2023-11-19T02:21:05;99010.22;;;10.48;79.65
65718;BME280;52445;52.466;-1.016;2023-11-19T02:23:32;99008.44;;;10.50;80.00
65718;BME280;52445;52.466;-1.016;2023-11-19T02:28:36;98998.75;;;10.59;80.55
65718;BME280;52445;52.466;-1.016;2023-11-19T02:31:03;98997.81;;;10.63;79.87
65718;BME280;52445;52.466;-1.016;2023-11-19T02:33:31;98997.75;;;10.66;80.22
65718;BME280;52445;52.466;-1.016;2023-11-19T02:35:58;99004.59;;;10.70;80.63
65718;BME280;52445;52.466;-1.016;2023-11-19T02:38:25;98992.50;;;10.71;79.85
65718;BME280;52445;52.466;-1.016;2023-11-19T02:40:52;98990.84;;;10.68;80.27
65718;BME280;52445;52.466;-1.016;2023-11-19T02:43:18;98988.13;;;10.73;80.83
65718;BME280;52445;52.466;-1.016;2023-11-19T02:45:45;98987.25;;;10.75;80.16
65718;BME280;52445;52.466;-1.016;2023-11-19T02:48:12;98979.53;;;10.72;80.12
65718;BME280;52445;52.466;-1.016;2023-11-19T02:50:41;98979.50;;;10.74;80.52
65718;BME280;52445;52.466;-1.016;2023-11-19T02:53:08;98972.50;;;10.77;80.43
65718;BME280;52445;52.466;-1.016;2023-11-19T02:55:35;98965.59;;;10.78;80.77
65718;BME280;52445;52.466;-1.016;2023-11-19T02:58:04;98969.78;;;10.84;80.53
65718;BME280;52445;52.466;-1.016;2023-11-19T03:00:46;98968.00;;;10.86;79.68
65718;BME280;52445;52.466;-1.016;2023-11-19T03:03:24;98965.38;;;10.87;80.07
65718;BME280;52445;52.466;-1.016;2023-11-19T03:05:55;98962.88;;;10.83;79.29
65718;BME280;52445;52.466;-1.016;2023-11-19T03:08:22;98971.44;;;10.88;79.28
65718;BME280;52445;52.466;-1.016;2023-11-19T03:10:49;98967.06;;;10.90;79.41
65718;BME280;52445;52.466;-1.016;2023-11-19T03:13:16;98965.38;;;10.87;79.76
65718;BME280;52445;52.466;-1.016;2023-11-19T03:15:44;98967.94;;;10.89;79.69
65718;BME280;52445;52.466;-1.016;2023-11-19T03:18:11;98964.47;;;10.90;79.64
65718;BME280;52445;52.466;-1.016;2023-11-19T03:20:38;98961.00;;;10.91;79.46
65718;BME280;52445;52.466;-1.016;2023-11-19T03:23:04;98954.16;;;10.87;78.85
65718;BME280;52445;52.466;-1.016;2023-11-19T03:25:32;98955.06;;;10.86;79.49
65718;BME280;52445;52.466;-1.016;2023-11-19T03:28:00;98974.16;;;10.80;78.80
65718;BME280;52445;52.466;-1.016;2023-11-19T03:30:29;98960.38;;;10.79;79.47
65718;BME280;52445;52.466;-1.016;2023-11-19T03:32:59;98961.25;;;10.78;79.75
65718;BME280;52445;52.466;-1.016;2023-11-19T03:35:28;98953.47;;;10.78;78.72
65718;BME280;52445;52.466;-1.016;2023-11-19T03:37:55;98950.09;;;10.76;79.61
65718;BME280;52445;52.466;-1.016;2023-11-19T03:40:22;98950.84;;;10.82;79.36
65718;BME280;52445;52.466;-1.016;2023-11-19T03:42:50;98949.09;;;10.82;79.13
65718;BME280;52445;52.466;-1.016;2023-11-19T03:45:17;98945.63;;;10.83;79.26
65718;BME280;52445;52.466;-1.016;2023-11-19T03:47:44;98947.28;;;10.86;79.19
65718;BME280;52445;52.466;-1.016;2023-11-19T03:50:10;98946.44;;;10.85;78.93
65718;BME280;52445;52.466;-1.016;2023-11-19T03:52:37;98945.53;;;10.88;79.21
65718;BME280;52445;52.466;-1.016;2023-11-19T03:55:07;98935.16;;;10.88;79.66
65718;BME280;52445;52.466;-1.016;2023-11-19T03:57:35;98936.88;;;10.89;79.26
65718;BME280;52445;52.466;-1.016;2023-11-19T04:00:02;98935.00;;;10.94;79.30
65718;BME280;52445;52.466;-1.016;2023-11-19T04:02:36;98926.38;;;10.95;79.17
65718;BME280;52445;52.466;-1.016;2023-11-19T04:05:04;98931.63;;;10.92;79.76
65718;BME280;52445;52.466;-1.016;2023-11-19T04:07:31;98929.13;;;10.87;78.83
65718;BME280;52445;52.466;-1.016;2023-11-19T04:09:58;98930.00;;;10.88;79.11
65718;BME280;52445;52.466;-1.016;2023-11-19T04:12:25;98935.09;;;10.91;78.90
65718;BME280;52445;52.466;-1.016;2023-11-19T04:14:52;98938.50;;;10.93;79.56
65718;BME280;52445;52.466;-1.016;2023-11-19T04:17:22;98938.50;;;10.93;79.55
65718;BME280;52445;52.466;-1.016;2023-11-19T04:19:49;98931.56;;;10.95;79.69
65718;BME280;52445;52.466;-1.016;2023-11-19T04:22:16;98935.81;;;10.98;78.71
65718;BME280;52445;52.466;-1.016;2023-11-19T04:24:43;98957.47;;;10.95;78.77
65718;BME280;52445;52.466;-1.016;2023-11-19T04:27:12;98943.63;;;10.96;79.83
65718;BME280;52445;52.466;-1.016;2023-11-19T04:29:39;98959.22;;;10.93;78.69
65718;BME280;52445;52.466;-1.016;2023-11-19T04:32:06;98954.97;;;10.90;79.36
65718;BME280;52445;52.466;-1.016;2023-11-19T04:34:32;98951.47;;;10.91;78.81
65718;BME280;52445;52.466;-1.016;2023-11-19T04:36:59;98943.91;;;10.84;79.87
65718;BME280;52445;52.466;-1.016;2023-11-19T04:39:32;98952.53;;;10.83;79.72
65718;BME280;52445;52.466;-1.016;2023-11-19T04:41:59;98952.63;;;10.79;79.02
65718;BME280;52445;52.466;-1.016;2023-11-19T04:44:25;98956.16;;;10.75;79.70
65718;BME280;52445;52.466;-1.016;2023-11-19T04:46:52;98949.41;;;10.68;78.75
65718;BME280;52445;52.466;-1.016;2023-11-19T04:49:19;98963.19;;;10.69;79.68
65718;BME280;52445;52.466;-1.016;2023-11-19T04:51:46;98961.50;;;10.66;79.60
65718;BME280;52445;52.466;-1.016;2023-11-19T04:54:14;98951.22;;;10.63;79.82
65718;BME280;52445;52.466;-1.016;2023-11-19T04:56:45;98949.63;;;10.56;79.42
65718;BME280;52445;52.466;-1.016;2023-11-19T04:59:11;98943.59;;;10.57;79.95
65718;BME280;52445;52.466;-1.016;2023-11-19T05:01:38;98941.13;;;10.50;79.35
65718;BME280;52445;52.466;-1.016;2023-11-19T05:04:05;98955.03;;;10.43;79.06
65718;BME280;52445;52.466;-1.016;2023-11-19T05:06:34;98940.31;;;10.48;79.88
65718;BME280;52445;52.466;-1.016;2023-11-19T05:09:02;98955.91;;;10.45;78.94
65718;BME280;52445;52.466;-1.016;2023-11-19T05:11:34;98956.75;;;10.44;79.66
65718;BME280;52445;52.466;-1.016;2023-11-19T05:14:03;98963.72;;;10.40;79.43
65718;BME280;52445;52.466;-1.016;2023-11-19T05:16:31;98955.09;;;10.40;79.92
65718;BME280;52445;52.466;-1.016;2023-11-19T05:18:58;98952.56;;;10.37;79.46
65718;BME280;52445;52.466;-1.016;2023-11-19T05:21:25;98945.66;;;10.37;78.76
65718;BME280;52445;52.466;-1.016;2023-11-19T05:23:51;98938.75;;;10.38;79.53
65718;BME280;52445;52.466;-1.016;2023-11-19T05:26:20;98948.22;;;10.39;79.01
65718;BME280;52445;52.466;-1.016;2023-11-19T05:28:48;98945.75;;;10.33;79.68
65718;BME280;52445;52.466;-1.016;2023-11-19T05:31:16;98941.28;;;10.41;78.88
65718;BME280;52445;52.466;-1.016;2023-11-19T05:33:43;98933.47;;;10.43;79.64
65718;BME280;52445;52.466;-1.016;2023-11-19T05:36:11;98937.78;;;10.45;79.17
65718;BME280;52445;52.466;-1.016;2023-11-19T05:38:39;98941.22;;;10.44;79.53
65718;BME280;52445;52.466;-1.016;2023-11-19T05:41:06;98930.00;;;10.44;79.57
65718;BME280;52445;52.466;-1.016;2023-11-19T05:43:33;98937.84;;;10.39;79.54
65718;BME280;52445;52.466;-1.016;2023-11-19T05:46:00;98946.50;;;10.38;79.01
65718;BME280;52445;52.466;-1.016;2023-11-19T05:48:28;98959.44;;;10.38;78.84
65718;BME280;52445;52.466;-1.016;2023-11-19T05:50:55;98968.13;;;10.35;78.96
65718;BME280;52445;52.466;-1.016;2023-11-19T05:53:22;98961.19;;;10.37;79.13
65718;BME280;52445;52.466;-1.016;2023-11-19T05:55:48;98954.25;;;10.39;78.79
65718;BME280;52445;52.466;-1.016;2023-11-19T05:58:25;98943.94;;;10.36;79.24
65718;BME280;52445;52.466;-1.016;2023-11-19T06:00:55;98960.41;;;10.32;78.56
65718;BME280;52445;52.466;-1.016;2023-11-19T06:03:23;98958.81;;;10.26;79.36
65718;BME280;52445;52.466;-1.016;2023-11-19T06:05:50;98960.50;;;10.27;78.54
65718;BME280;52445;52.466;-1.016;2023-11-19T06:08:17;98957.97;;;10.24;79.13
65718;BME280;52445;52.466;-1.016;2023-11-19T06:10:44;98964.09;;;10.20;79.56
65718;BME280;52445;52.466;-1.016;2023-11-19T06:13:16;98964.97;;;10.19;78.83
65718;BME280;52445;52.466;-1.016;2023-11-19T06:15:43;98960.69;;;10.18;79.50
65718;BME280;52445;52.466;-1.016;2023-11-19T06:18:11;98958.13;;;10.16;79.41
65718;BME280;52445;52.466;-1.016;2023-11-19T06:20:40;98969.34;;;10.17;79.13
65718;BME280;52445;52.466;-1.016;2023-11-19T06:23:09;98979.59;;;10.20;79.61
65718;BME280;52445;52.466;-1.016;2023-11-19T06:25:36;98969.25;;;10.20;80.12
65718;BME280;52445;52.466;-1.016;2023-11-19T06:28:03;98976.91;;;10.28;79.82
65718;BME280;52445;52.466;-1.016;2023-11-19T06:30:31;98982.03;;;10.29;78.96
65718;BME280;52445;52.466;-1.016;2023-11-19T06:32:59;98978.59;;;10.29;79.23
65718;BME280;52445;52.466;-1.016;2023-11-19T06:35:26;98982.84;;;10.32;79.14
65718;BME280;52445;52.466;-1.016;2023-11-19T06:37:55;98986.31;;;10.31;79.02
65718;BME280;52445;52.466;-1.016;2023-11-19T06:40:22;98987.28;;;10.26;79.75
65718;BME280;52445;52.466;-1.016;2023-11-19T06:42:49;98982.97;;;10.27;79.40
65718;BME280;52445;52.466;-1.016;2023-11-19T06:45:15;98983.84;;;10.24;79.85
65718;BME280;52445;52.466;-1.016;2023-11-19T06:47:42;98978.66;;;10.24;79.70
65718;BME280;52445;52.466;-1.016;2023-11-19T06:50:09;98976.94;;;10.25;80.07
65718;BME280;52445;52.466;-1.016;2023-11-19T06:52:36;98982.97;;;10.27;79.84
65718;BME280;52445;52.466;-1.016;2023-11-19T06:55:04;98977.75;;;10.28;80.11
65718;BME280;52445;52.466;-1.016;2023-11-19T06:57:34;98978.56;;;10.31;80.13
65718;BME280;52445;52.466;-1.016;2023-11-19T07:00:01;98979.41;;;10.33;79.13
65718;BME280;52445;52.466;-1.016;2023-11-19T07:02:28;98987.97;;;10.35;79.25
65718;BME280;52445;52.466;-1.016;2023-11-19T07:04:55;98983.63;;;10.37;79.82
65718;BME280;52445;52.466;-1.016;2023-11-19T07:07:22;98979.31;;;10.36;79.54
65718;BME280;52445;52.466;-1.016;2023-11-19T07:09:49;98983.66;;;10.35;80.07
65718;BME280;52445;52.466;-1.016;2023-11-19T07:12:16;98980.25;;;10.33;79.70
65718;BME280;52445;52.466;-1.016;2023-11-19T07:14:43;98967.31;;;10.32;79.80
65718;BME280;52445;52.466;-1.016;2023-11-19T07:17:09;98977.75;;;10.28;80.29
65718;BME280;52445;52.466;-1.016;2023-11-19T07:19:37;98970.06;;;10.24;79.26
65718;BME280;52445;52.466;-1.016;2023-11-19T07:22:05;98963.22;;;10.21;79.20
65718;BME280;52445;52.466;-1.016;2023-11-19T07:24:33;98972.72;;;10.19;79.92
65718;BME280;52445;52.466;-1.016;2023-11-19T07:27:00;98975.38;;;10.16;80.32
65718;BME280;52445;52.466;-1.016;2023-11-19T07:29:27;98977.13;;;10.15;79.55
65718;BME280;52445;52.466;-1.016;2023-11-19T07:31:55;98976.25;;;10.15;80.04
65718;BME280;52445;52.466;-1.016;2023-11-19T07:34:24;98971.13;;;10.12;80.34
65718;BME280;52445;52.466;-1.016;2023-11-19T07:36:51;98979.78;;;10.11;79.90
65718;BME280;52445;52.466;-1.016;2023-11-19T07:39:19;98974.66;;;10.08;79.73
65718;BME280;52445;52.466;-1.016;2023-11-19T07:41:47;98971.28;;;10.04;79.95
65718;BME280;52445;52.466;-1.016;2023-11-19T07:44:14;98971.31;;;10.02;80.58
65718;BME280;52445;52.466;-1.016;2023-11-19T07:46:41;98969.53;;;10.05;80.41
65718;BME280;52445;52.466;-1.016;2023-11-19T07:49:09;98979.88;;;10.06;80.74
65718;BME280;52445;52.466;-1.016;2023-11-19T07:51:37;98983.31;;;10.07;80.04
65718;BME280;52445;52.466;-1.016;2023-11-19T07:54:04;98971.19;;;10.09;81.02
65718;BME280;52445;52.466;-1.016;2023-11-19T07:56:32;98982.38;;;10.11;80.43
65718;BME280;52445;52.466;-1.016;2023-11-19T07:59:01;98985.94;;;10.03;80.63
65718;BME280;52445;52.466;-1.016;2023-11-19T08:01:28;98981.50;;;10.12;81.09
65718;BME280;52445;52.466;-1.016;2023-11-19T08:03:55;98984.88;;;10.17;80.25
65718;BME280;52445;52.466;-1.016;2023-11-19T08:06:25;98989.13;;;10.20;80.37
65718;BME280;52445;52.466;-1.016;2023-11-19T08:08:52;98990.81;;;10.21;80.30
65718;BME280;52445;52.466;-1.016;2023-11-19T08:11:19;98985.66;;;10.21;80.76
65718;BME280;52445;52.466;-1.016;2023-11-19T08:13:46;98988.22;;;10.22;81.12
65718;BME280;52445;52.466;-1.016;2023-11-19T08:16:14;98981.22;;;10.27;81.09
65718;BME280;52445;52.466;-1.016;2023-11-19T08:18:43;98987.19;;;10.31;80.13
65718;BME280;52445;52.466;-1.016;2023-11-19T08:21:10;98987.94;;;10.38;80.31
65718;BME280;52445;52.466;-1.016;2023-11-19T08:23:37;98972.22;;;10.47;80.14
65718;BME280;52445;52.466;-1.016;2023-11-19T08:26:05;98976.31;;;10.59;80.76
65718;BME280;52445;52.466;-1.016;2023-11-19T08:28:32;98980.38;;;10.71;80.83
65718;BME280;52445;52.466;-1.016;2023-11-19T08:31:01;98983.56;;;10.86;79.84
65718;BME280;52445;52.466;-1.016;2023-11-19T08:33:30;98989.28;;;11.02;79.81
65718;BME280;52445;52.466;-1.016;2023-11-19T08:35:57;98991.63;;;11.13;79.43
65718;BME280;52445;52.466;-1.016;2023-11-19T08:38:25;98989.00;;;11.14;79.45
65718;BME280;52445;52.466;-1.016;2023-11-19T08:40:54;98989.84;;;11.15;79.59
65718;BME280;52445;52.466;-1.016;2023-11-19T08:43:26;98990.78;;;11.12;79.99
65718;BME280;52445;52.466;-1.016;2023-11-19T08:45:53;98980.34;;;11.14;79.70
65718;BME280;52445;52.466;-1.016;2023-11-19T08:48:20;98997.56;;;11.18;79.32
65718;BME280;52445;52.466;-1.016;2023-11-19T08:50:47;98987.88;;;11.26;79.72
65718;BME280;52445;52.466;-1.016;2023-11-19T08:53:14;99005.81;;;11.36;79.57
65718;BME280;52445;52.466;-1.016;2023-11-19T08:55:41;98992.88;;;11.34;78.58
65718;BME280;52445;52.466;-1.016;2023-11-19T08:58:08;98991.16;;;11.35;79.60
65718;BME280;52445;52.466;-1.016;2023-11-19T09:00:35;98993.75;;;11.35;79.83
65718;BME280;52445;52.466;-1.016;2023-11-19T09:03:02;98991.19;;;11.33;78.47
65718;BME280;52445;52.466;-1.016;2023-11-19T09:05:30;98999.81;;;11.34;78.55
65718;BME280;52445;52.466;-1.016;2023-11-19T09:07:57;99002.41;;;11.34;79.34
65718;BME280;52445;52.466;-1.016;2023-11-19T09:10:23;99002.44;;;11.32;79.30
65718;BME280;52445;52.466;-1.016;2023-11-19T09:12:50;99010.25;;;11.30;79.19
65718;BME280;52445;52.466;-1.016;2023-11-19T09:15:17;99001.59;;;11.30;78.71
65718;BME280;52445;52.466;-1.016;2023-11-19T09:17:43;99001.56;;;11.31;78.83
65718;BME280;52445;52.466;-1.016;2023-11-19T09:20:10;99008.63;;;11.26;79.95
65718;BME280;52445;52.466;-1.016;2023-11-19T09:22:41;98997.44;;;11.23;78.84
65718;BME280;52445;52.466;-1.016;2023-11-19T09:25:08;99000.06;;;11.21;78.74
65718;BME280;52445;52.466;-1.016;2023-11-19T09:27:35;98996.78;;;11.14;80.12
65718;BME280;52445;52.466;-1.016;2023-11-19T09:30:02;98997.66;;;11.13;79.31
65718;BME280;52445;52.466;-1.016;2023-11-19T09:32:30;98995.91;;;11.14;80.28
65718;BME280;52445;52.466;-1.016;2023-11-19T09:34:57;98997.63;;;11.15;79.10
65718;BME280;52445;52.466;-1.016;2023-11-19T09:37:24;98984.69;;;11.15;80.27
65718;BME280;52445;52.466;-1.016;2023-11-19T09:39:50;98989.84;;;11.15;80.43
65718;BME280;52445;52.466;-1.016;2023-11-19T09:42:17;98981.22;;;11.14;80.04
65718;BME280;52445;52.466;-1.016;2023-11-19T09:44:44;98989.91;;;11.12;79.95
65718;BME280;52445;52.466;-1.016;2023-11-19T09:47:12;98983.91;;;11.10;80.68
65718;BME280;52445;52.466;-1.016;2023-11-19T09:49:40;98982.19;;;11.10;80.07
65718;BME280;52445;52.466;-1.016;2023-11-19T09:52:07;98980.41;;;11.12;80.49
65718;BME280;52445;52.466;-1.016;2023-11-19T09:54:34;98979.50;;;11.15;80.03
65718;BME280;52445;52.466;-1.016;2023-11-19T09:57:01;98979.44;;;11.18;79.95
65718;BME280;52445;52.466;-1.016;2023-11-19T09:59:31;98982.81;;;11.20;80.91
65718;BME280;52445;52.466;-1.016;2023-11-19T10:01:59;98980.19;;;11.22;80.47
65718;BME280;52445;52.466;-1.016;2023-11-19T10:04:29;98979.28;;;11.24;80.29
65718;BME280;52445;52.466;-1.016;2023-11-19T10:06:56;98983.59;;;11.24;80.19
65718;BME280;52445;52.466;-1.016;2023-11-19T10:09:23;98983.50;;;11.28;80.34
65718;BME280;52445;52.466;-1.016;2023-11-19T10:11:50;98983.50;;;11.28;81.24
65718;BME280;52445;52.466;-1.016;2023-11-19T10:14:20;98979.91;;;11.34;81.15
65718;BME280;52445;52.466;-1.016;2023-11-19T10:16:49;98979.81;;;11.39;80.05
65718;BME280;52445;52.466;-1.016;2023-11-19T10:19:19;98974.53;;;11.43;79.99
65718;BME280;52445;52.466;-1.016;2023-11-19T10:21:47;98975.28;;;11.47;80.95
65718;BME280;52445;52.466;-1.016;2023-11-19T10:24:14;98978.63;;;11.52;80.50
65718;BME280;52445;52.466;-1.016;2023-11-19T10:26:56;98976.84;;;11.54;80.66
65718;BME280;52445;52.466;-1.016;2023-11-19T10:29:24;98961.22;;;11.57;80.43
65718;BME280;52445;52.466;-1.016;2023-11-19T10:31:58;98962.84;;;11.62;80.32
65718;BME280;52445;52.466;-1.016;2023-11-19T10:34:45;98948.59;;;11.78;80.43
65718;BME280;52445;52.466;-1.016;2023-11-19T10:37:28;98949.22;;;11.88;79.92
65718;BME280;52445;52.466;-1.016;2023-11-19T10:39:58;98948.03;;;12.02;79.43
65718;BME280;52445;52.466;-1.016;2023-11-19T10:42:25;98953.16;;;12.03;79.67
65718;BME280;52445;52.466;-1.016;2023-11-19T10:44:51;98949.53;;;12.11;79.35
65718;BME280;52445;52.466;-1.016;2023-11-19T10:47:19;98947.75;;;12.13;79.65
65718;BME280;52445;52.466;-1.016;2023-11-19T10:50:04;98939.06;;;12.14;79.82
65718;BME280;52445;52.466;-1.016;2023-11-19T10:52:32;98944.19;;;12.17;79.21
65718;BME280;52445;52.466;-1.016;2023-11-19T10:55:00;98942.38;;;12.19;79.01
65718;BME280;52445;52.466;-1.016;2023-11-19T10:57:30;98938.78;;;12.25;79.82
65718;BME280;52445;52.466;-1.016;2023-11-19T11:00:01;98937.81;;;12.29;79.09
65718;BME280;52445;52.466;-1.016;2023-11-19T11:02:30;98928.19;;;12.32;78.69
65718;BME280;52445;52.466;-1.016;2023-11-19T11:05:01;98921.09;;;12.38;78.90
65718;BME280;52445;52.466;-1.016;2023-11-19T11:07:30;98940.28;;;12.33;78.09
65718;BME280;52445;52.466;-1.016;2023-11-19T11:10:07;98932.47;;;12.33;78.02
65718;BME280;52445;52.466;-1.016;2023-11-19T11:12:37;98935.06;;;12.33;77.92
65718;BME280;52445;52.466;-1.016;2023-11-19T11:15:05;98929.88;;;12.33;78.29
65718;BME280;52445;52.466;-1.016;2023-11-19T11:17:33;98920.31;;;12.36;78.83
65718;BME280;52445;52.466;-1.016;2023-11-19T11:20:01;98915.84;;;12.41;78.51
65718;BME280;52445;52.466;-1.016;2023-11-19T11:22:39;98920.75;;;12.50;78.85
65718;BME280;52445;52.466;-1.016;2023-11-19T11:31:10;98904.84;;;12.63;78.53
65718;BME280;52445;52.466;-1.016;2023-11-19T11:33:59;98897.75;;;12.68;77.62
65718;BME280;52445;52.466;-1.016;2023-11-19T11:36:42;98900.38;;;12.66;78.26
65718;BME280;52445;52.466;-1.016;2023-11-19T11:39:13;98899.56;;;12.66;77.49
65718;BME280;52445;52.466;-1.016;2023-11-19T11:41:41;98893.44;;;12.67;78.60
65718;BME280;52445;52.466;-1.016;2023-11-19T11:44:08;98891.56;;;12.72;78.44
65718;BME280;52445;52.466;-1.016;2023-11-19T11:49:11;98892.38;;;13.03;78.13
65718;BME280;52445;52.466;-1.016;2023-11-19T11:57:16;98885.88;;;12.88;77.48
65718;BME280;52445;52.466;-1.016;2023-11-19T12:02:21;98877.16;;;12.90;77.49
65718;BME280;52445;52.466;-1.016;2023-11-19T12:04:50;98878.09;;;12.88;78.05
65718;BME280;52445;52.466;-1.016;2023-11-19T12:07:21;98878.97;;;12.88;77.18
65718;BME280;52445;52.466;-1.016;2023-11-19T12:09:53;98878.00;;;12.91;77.37
65718;BME280;52445;52.466;-1.016;2023-11-19T12:12:22;98874.50;;;12.92;77.08
65718;BME280;52445;52.466;-1.016;2023-11-19T12:15:07;98869.59;;;12.82;78.06
65718;BME280;52445;52.466;-1.016;2023-11-19T12:17:38;98866.97;;;12.84;77.82
65718;BME280;52445;52.466;-1.016;2023-11-19T12:20:07;98871.22;;;12.87;77.81
65718;BME280;52445;52.466;-1.016;2023-11-19T12:22:37;98869.50;;;12.85;78.01
65718;BME280;52445;52.466;-1.016;2023-11-19T12:25:06;98870.34;;;12.86;78.16
65718;BME280;52445;52.466;-1.016;2023-11-19T12:27:33;98864.06;;;12.93;77.84
65718;BME280;52445;52.466;-1.016;2023-11-19T12:30:02;98861.41;;;12.95;77.83
65718;BME280;52445;52.466;-1.016;2023-11-19T12:32:42;98850.13;;;12.96;77.72
65718;BME280;52445;52.466;-1.016;2023-11-19T12:35:10;98850.16;;;12.94;77.98
65718;BME280;52445;52.466;-1.016;2023-11-19T12:37:56;98850.19;;;12.93;78.29
65718;BME280;52445;52.466;-1.016;2023-11-19T12:40:24;98851.84;;;12.97;77.45
65718;BME280;52445;52.466;-1.016;2023-11-19T12:42:52;98838.84;;;12.97;77.18
65718;BME280;52445;52.466;-1.016;2023-11-19T12:45:20;98842.19;;;13.01;77.45
65718;BME280;52445;52.466;-1.016;2023-11-19T12:47:48;98856.63;;;13.09;77.69
65718;BME280;52445;52.466;-1.016;2023-11-19T12:50:16;98854.81;;;13.11;77.59
65718;BME280;52445;52.466;-1.016;2023-11-19T12:53:01;98844.50;;;13.08;76.85
65718;BME280;52445;52.466;-1.016;2023-11-19T12:55:28;98846.03;;;13.16;77.17
65718;BME280;52445;52.466;-1.016;2023-11-19T12:57:57;98852.16;;;13.13;77.01
65718;BME280;52445;52.466;-1.016;2023-11-19T13:00:26;98849.78;;;13.07;76.67
65718;BME280;52445;52.466;-1.016;2023-11-19T13:02:55;98845.25;;;13.14;76.67
65718;BME280;52445;52.466;-1.016;2023-11-19T13:10:56;98826.19;;;13.13;76.71
65718;BME280;52445;52.466;-1.016;2023-11-19T13:13:22;98836.38;;;13.19;77.36
65718;BME280;52445;52.466;-1.016;2023-11-19T13:15:49;98844.00;;;13.24;77.00
65718;BME280;52445;52.466;-1.016;2023-11-19T13:18:16;98833.59;;;13.24;77.36
65718;BME280;52445;52.466;-1.016;2023-11-19T13:20:43;98842.31;;;13.23;76.72